Atlantic - Newfoundland: Past 24 Hour Conditions

 

Port aux Basques

11:30 PM NST 28 November 2014
This table is a summary of hourly weather conditions for the past 24 hours.
Date / Time
(NST)
Wind(knots) Conditions Visibility(km) Pressure(kPa) Air tempC) Relative humidity(%) Dew pointC) Wind Chill
28 November 2014
23:30 NE 5 Partly Cloudy 15 101.2 -3 80 -6 -7
22:30 N 7 Cloudy 15 101.2 -3 83 -6 -8
21:30 NE 5 Mostly Cloudy 15 101.2 -3 87 -5 -7
20:30 ENE 7 Mainly Clear 15 101.2 -3 86 -5 -7
19:30 ENE 7 Cloudy 15 101.3 -2 89 -4 -7
18:30 ENE 4 Cloudy 15 101.2 -2 88 -3 -4
17:30 N 4 Cloudy 15 101.3 -1 80 -4 -4
16:30 NE 4 Cloudy 15 101.2 -1 75 -5 -3
15:30 NE 7 Cloudy 15 101.2 -1 73 -5 -5
14:30 NE 7 Mostly Cloudy 15 101.1 0 72 -5 -4
13:30 NE 8 Partly Cloudy 15 101.1 0 70 -5 -4
12:30 NNE 6 Mainly Sunny 15 101.2 0 66 -5 *
11:30 N 8 Mainly Sunny 15 101.3 0 70 -5 -5
10:30 N 13 Cloudy 15 101.4 -1 72 -5 -7
9:30 N 10 gust 19 Cloudy 15 101.3 -1 73 -5 -6
8:30 NNW 17 Cloudy 15 101.2 -1 75 -5 -8
7:30 NNW 9 Mostly Cloudy 15 101.2 -1 84 -3 -6
6:30 NW 9 Cloudy 15 101.1 -1 83 -3 -5
5:30 NNW 12 Cloudy 15 101.0 0 81 -3 -6
4:30 NW 11 Mostly Cloudy 15 101.0 -1 89 -2 -6
3:30 NW 11 Mostly Cloudy 15 100.9 0 81 -3 -5
2:30 NW 13 gust 18 Light Snow 15 100.8 0 83 -2 *
1:30 NNW 15 Partly Cloudy 15 100.6 0 83 -2 *
0:30 NW 19 gust 26 Partly Cloudy 10 100.5 0 88 -2 *
27 November 2014
23:30 NNW 22 gust 34 Mainly Clear 11 100.2 1 86 -2 *
 
Map of Atlantic - Newfoundland marine weather areas Southwestern Grand Banks - 44138 Banquereau - 44139 Tail of the Bank - 44140 Nickerson Bank - 44251 Northeast Burgeo Bank - 44255 Blanc-Sablon Airport Cap Whittle Chevery Natashquan Airport Heath Point Miscou Island Grand Étang Ingonish Beach North Mountain St.Paul Island J.A. Douglas McCurdy Sydney Airport Charlottetown Airport East Point North Cape Argentia Bonavista Burgeo Cape Race Corner Brook Daniel's Harbour Englee Ferolle Point La Scie Port aux Basques Rocky Harbour Sagona Island St. Anthony Airport St. John's Int'l Airport St. Lawrence Stephenville Airport Twillingate Winterland Wreckhouse Cartwright Airport Mary's Harbour Grates Cove Pool's Island Marticot Island Long Pond Îles de la Madeleine Airport
Legend: buoyBuoy land stationLand Station